Terminal Aerodrome Forecast
Issued by NWS Wakefield, VA

Home | Current Version | Previous Version | Text Only | Print | Product List | Glossary On
Versions: 1 2 3 4 5 6 7 8 9 10 11 12 13 14 15 16 17 18 19 20 21 22 23 24 25 26 27 28 29 30 31 32 33 34 35
571
FTUS41 KAKQ 241911 AAA
TAFECG
TAF AMD
KECG 241911Z 2419/2518 30015G25KT P6SM OVC040
     FM242100 30010KT P6SM BKN040
     FM250000 28008KT P6SM SKC=

USA.gov is the U.S. government's official web portal to all federal, state and local government web resources and services.